Nichiryu Maru — JG5632 — position and weather

sailwx.info

Track history (hours):
 
Tides and Currents Weather Stations Pressure Air Temp Water Temp Dewpoint Dewpoint Depression Visibility Wind Speed Wind Dir Waves Ship Positions

Nichiryu Maru

Last reported at 2017-Feb-26 10:33 UTC. Time now 2017-Feb-26 10:34 UTC.
Position N 34°55' E 139°29'.

Length 158 m; draft 6.5 m.

Type: Cargo ship. MMSI: 43100939.

Date/timePositionNaut miles runAvg speedWind from/ knotsBaromVisibWave heightAir tempDewpointWater temp
2017-Feb-26 10:33N 34°55' E 139°29'38014.4
2017-Feb-25 08:11N 33°10' E 132°08'38 3.0
2017-Feb-24 19:14N 33°45' E 131°49'1620.0
2017-Feb-24 18:25N 33°42' E 132°09'1720.2
2017-Feb-24 17:33N 33°48' E 132°28'2120.8
2017-Feb-24 16:33N 34°03' E 132°47'12217.4
2017-Feb-24 09:33N 34°37' E 135°08'6 5.2
2017-Feb-24 08:28N 34°41' E 135°13'0 0.0
2017-Feb-24 07:28N 34°41' E 135°13'0 0.0
2017-Feb-24 06:22N 34°41' E 135°13'0 0.0
2017-Feb-24 05:10N 34°41' E 135°13'3 5.5
2017-Feb-24 04:34N 34°38' E 135°16'2018.5
2017-Feb-24 03:28N 34°21' E 135°03'1617.7
2017-Feb-24 02:33N 34°05' E 135°00'22414.9
2017-Feb-23 11:32N 34°57' E 139°24'1818.5
2017-Feb-23 10:33N 35°07' E 139°43'1211.9
2017-Feb-23 09:33N 35°19' E 139°42'2 2.4
2017-Feb-23 08:33N 35°19' E 139°39'0 0.0
2017-Feb-23 07:33N 35°19' E 139°39'0 0.0
2017-Feb-23 06:33N 35°19' E 139°39'0 0.0
2017-Feb-23 05:33N 35°19' E 139°39'0 0.0
2017-Feb-23 04:33N 35°19' E 139°39'0 0.0
2017-Feb-23 03:34N 35°19' E 139°39'9 9.0
2017-Feb-23 02:33N 35°12' E 139°47'1313.2
2017-Feb-23 01:33N 35°01' E 139°39'38918.5
2017-Feb-22 04:30N 33°10' E 132°08'1 0.0
2017-Feb-21 13:24N 33°10' E 132°07'37915.0
2017-Feb-20 12:05N 34°59' E 139°25'814.9
2017-Feb-20 11:31N 35°03' E 139°34'1212.4
2017-Feb-20 10:33N 35°11' E 139°46'9 9.4
2017-Feb-20 09:33N 35°19' E 139°40'1 0.6
2017-Feb-20 08:27N 35°19' E 139°39'0 0.0
2017-Feb-20 07:33N 35°19' E 139°39'0 0.0
2017-Feb-20 06:33N 35°19' E 139°39'0 0.0
2017-Feb-20 05:27N 35°19' E 139°39'0 0.0
2017-Feb-20 04:30N 35°19' E 139°39'0 0.0
2017-Feb-20 03:30N 35°19' E 139°39'0 0.0
2017-Feb-20 02:33N 35°19' E 139°39'0 0.0
2017-Feb-20 01:24N 35°19' E 139°39'0 0.0
2017-Feb-20 00:33N 35°19' E 139°39'0 0.0
2017-Feb-19 23:33N 35°19' E 139°39'2 1.8
2017-Feb-19 22:29N 35°20' E 139°41'0 0.1
2017-Feb-19 21:32N 35°20' E 139°41'0 0.0
2017-Feb-19 20:32N 35°20' E 139°41'0 0.1
2017-Feb-19 19:32N 35°20' E 139°41'0 0.1
2017-Feb-19 18:32N 35°20' E 139°41'0 0.1
2017-Feb-19 17:32N 35°19' E 139°41'0 0.1
2017-Feb-19 16:32N 35°20' E 139°41'0 0.0
2017-Feb-19 15:32N 35°20' E 139°41'0 0.1
2017-Feb-19 14:29N 35°20' E 139°41'0 0.0
2017-Feb-19 13:32N 35°20' E 139°41'9 9.5
2017-Feb-19 12:33N 35°11' E 139°47'2019.3
2017-Feb-19 11:33N 34°56' E 139°31'373 9.1
2017-Feb-17 18:29N 33°42' E 132°08'1819.7
2017-Feb-17 17:33N 33°48' E 132°29'1918.9
2017-Feb-17 16:33N 34°01' E 132°45'11516.4
2017-Feb-17 09:33N 34°37' E 134°57'1615.7
2017-Feb-17 08:34N 34°39' E 135°16'3 2.8
2017-Feb-17 07:31N 34°41' E 135°13'0 0.0
2017-Feb-17 06:31N 34°41' E 135°13'0 0.0
2017-Feb-17 05:13N 34°41' E 135°13'0 0.0
2017-Feb-17 04:25N 34°41' E 135°13'2 2.7
2017-Feb-17 03:33N 34°39' E 135°16'1918.7
2017-Feb-17 02:33N 34°23' E 135°04'1919.6
2017-Feb-17 01:33N 34°04' E 135°00'23816.4
2017-Feb-16 11:03N 35°05' E 139°40'  
Track history (hours):
 
Tides and Currents Weather Stations Pressure Air Temp Water Temp Dewpoint Dewpoint Depression Visibility Wind Speed Wind Dir Waves Ship Positions

Nichiryu Maru

Last reported at 2017-Feb-26 10:33 UTC. Time now 2017-Feb-26 10:34 UTC.
Position N 34°55' E 139°29'.

Length 158 m; draft 6.5 m.

Type: Cargo ship. MMSI: 43100939.

Date/timePositionNaut miles runAvg speedWind from/ knotsBaromVisibWave heightAir tempDewpointWater temp
2017-Feb-26 10:33N 34°55' E 139°29'38014.4
2017-Feb-25 08:11N 33°10' E 132°08'38 3.0
2017-Feb-24 19:14N 33°45' E 131°49'1620.0
2017-Feb-24 18:25N 33°42' E 132°09'1720.2
2017-Feb-24 17:33N 33°48' E 132°28'2120.8
2017-Feb-24 16:33N 34°03' E 132°47'12217.4
2017-Feb-24 09:33N 34°37' E 135°08'6 5.2
2017-Feb-24 08:28N 34°41' E 135°13'0 0.0
2017-Feb-24 07:28N 34°41' E 135°13'0 0.0
2017-Feb-24 06:22N 34°41' E 135°13'0 0.0
2017-Feb-24 05:10N 34°41' E 135°13'3 5.5
2017-Feb-24 04:34N 34°38' E 135°16'2018.5
2017-Feb-24 03:28N 34°21' E 135°03'1617.7
2017-Feb-24 02:33N 34°05' E 135°00'22414.9
2017-Feb-23 11:32N 34°57' E 139°24'1818.5
2017-Feb-23 10:33N 35°07' E 139°43'1211.9
2017-Feb-23 09:33N 35°19' E 139°42'2 2.4
2017-Feb-23 08:33N 35°19' E 139°39'0 0.0
2017-Feb-23 07:33N 35°19' E 139°39'0 0.0
2017-Feb-23 06:33N 35°19' E 139°39'0 0.0
2017-Feb-23 05:33N 35°19' E 139°39'0 0.0
2017-Feb-23 04:33N 35°19' E 139°39'0 0.0
2017-Feb-23 03:34N 35°19' E 139°39'9 9.0
2017-Feb-23 02:33N 35°12' E 139°47'1313.2
2017-Feb-23 01:33N 35°01' E 139°39'38918.5
2017-Feb-22 04:30N 33°10' E 132°08'1 0.0
2017-Feb-21 13:24N 33°10' E 132°07'37915.0
2017-Feb-20 12:05N 34°59' E 139°25'814.9
2017-Feb-20 11:31N 35°03' E 139°34'1212.4
2017-Feb-20 10:33N 35°11' E 139°46'9 9.4
2017-Feb-20 09:33N 35°19' E 139°40'1 0.6
2017-Feb-20 08:27N 35°19' E 139°39'0 0.0
2017-Feb-20 07:33N 35°19' E 139°39'0 0.0
2017-Feb-20 06:33N 35°19' E 139°39'0 0.0
2017-Feb-20 05:27N 35°19' E 139°39'0 0.0
2017-Feb-20 04:30N 35°19' E 139°39'0 0.0
2017-Feb-20 03:30N 35°19' E 139°39'0 0.0
2017-Feb-20 02:33N 35°19' E 139°39'0 0.0
2017-Feb-20 01:24N 35°19' E 139°39'0 0.0
2017-Feb-20 00:33N 35°19' E 139°39'0 0.0
2017-Feb-19 23:33N 35°19' E 139°39'2 1.8
2017-Feb-19 22:29N 35°20' E 139°41'0 0.1
2017-Feb-19 21:32N 35°20' E 139°41'0 0.0
2017-Feb-19 20:32N 35°20' E 139°41'0 0.1
2017-Feb-19 19:32N 35°20' E 139°41'0 0.1
2017-Feb-19 18:32N 35°20' E 139°41'0 0.1
2017-Feb-19 17:32N 35°19' E 139°41'0 0.1
2017-Feb-19 16:32N 35°20' E 139°41'0 0.0
2017-Feb-19 15:32N 35°20' E 139°41'0 0.1
2017-Feb-19 14:29N 35°20' E 139°41'0 0.0
2017-Feb-19 13:32N 35°20' E 139°41'9 9.5
2017-Feb-19 12:33N 35°11' E 139°47'2019.3
2017-Feb-19 11:33N 34°56' E 139°31'373 9.1
2017-Feb-17 18:29N 33°42' E 132°08'1819.7
2017-Feb-17 17:33N 33°48' E 132°29'1918.9
2017-Feb-17 16:33N 34°01' E 132°45'11516.4
2017-Feb-17 09:33N 34°37' E 134°57'1615.7
2017-Feb-17 08:34N 34°39' E 135°16'3 2.8
2017-Feb-17 07:31N 34°41' E 135°13'0 0.0
2017-Feb-17 06:31N 34°41' E 135°13'0 0.0
2017-Feb-17 05:13N 34°41' E 135°13'0 0.0
2017-Feb-17 04:25N 34°41' E 135°13'2 2.7
2017-Feb-17 03:33N 34°39' E 135°16'1918.7
2017-Feb-17 02:33N 34°23' E 135°04'1919.6
2017-Feb-17 01:33N 34°04' E 135°00'23816.4
2017-Feb-16 11:03N 35°05' E 139°40'  

Dump ship's entire track history